sensor_id;sensor_type;location;lat;lon;timestamp;P1;durP1;ratioP1;P2;durP2;ratioP2
71395;SDS011;59888;55.814;37.132;2023-05-16T00:00:43;8.45;;;5.22;;
71395;SDS011;59888;55.814;37.132;2023-05-16T00:03:10;12.63;;;5.53;;
71395;SDS011;59888;55.814;37.132;2023-05-16T00:05:36;10.93;;;4.88;;
71395;SDS011;59888;55.814;37.132;2023-05-16T00:08:03;13.35;;;5.22;;
71395;SDS011;59888;55.814;37.132;2023-05-16T00:10:30;11.80;;;5.30;;
71395;SDS011;59888;55.814;37.132;2023-05-16T00:12:56;11.50;;;5.53;;
71395;SDS011;59888;55.814;37.132;2023-05-16T00:15:22;11.40;;;5.38;;
71395;SDS011;59888;55.814;37.132;2023-05-16T00:17:49;14.77;;;5.15;;
71395;SDS011;59888;55.814;37.132;2023-05-16T00:20:16;12.98;;;5.60;;
71395;SDS011;59888;55.814;37.132;2023-05-16T00:22:47;13.68;;;5.72;;
71395;SDS011;59888;55.814;37.132;2023-05-16T00:25:13;14.40;;;6.18;;
71395;SDS011;59888;55.814;37.132;2023-05-16T00:27:39;11.27;;;6.22;;
71395;SDS011;59888;55.814;37.132;2023-05-16T00:30:05;10.43;;;6.00;;
71395;SDS011;59888;55.814;37.132;2023-05-16T00:32:34;11.52;;;6.30;;
71395;SDS011;59888;55.814;37.132;2023-05-16T00:35:00;13.68;;;6.30;;
71395;SDS011;59888;55.814;37.132;2023-05-16T00:37:31;15.75;;;6.35;;
71395;SDS011;59888;55.814;37.132;2023-05-16T00:39:57;13.07;;;6.68;;
71395;SDS011;59888;55.814;37.132;2023-05-16T00:42:23;12.70;;;6.60;;
71395;SDS011;59888;55.814;37.132;2023-05-16T00:44:49;19.30;;;7.68;;
71395;SDS011;59888;55.814;37.132;2023-05-16T00:47:15;17.77;;;6.97;;
71395;SDS011;59888;55.814;37.132;2023-05-16T00:49:41;13.35;;;6.38;;
71395;SDS011;59888;55.814;37.132;2023-05-16T00:52:07;13.18;;;6.63;;
71395;SDS011;59888;55.814;37.132;2023-05-16T00:54:34;14.57;;;7.05;;
71395;SDS011;59888;55.814;37.132;2023-05-16T00:57:00;16.38;;;6.47;;
71395;SDS011;59888;55.814;37.132;2023-05-16T00:59:26;14.15;;;6.47;;
71395;SDS011;59888;55.814;37.132;2023-05-16T01:01:52;15.75;;;6.47;;
71395;SDS011;59888;55.814;37.132;2023-05-16T01:04:19;16.25;;;6.57;;
71395;SDS011;59888;55.814;37.132;2023-05-16T01:06:45;15.25;;;6.72;;
71395;SDS011;59888;55.814;37.132;2023-05-16T01:09:11;15.50;;;6.22;;
71395;SDS011;59888;55.814;37.132;2023-05-16T01:14:44;12.63;;;6.15;;
71395;SDS011;59888;55.814;37.132;2023-05-16T01:19:49;11.55;;;6.10;;
71395;SDS011;59888;55.814;37.132;2023-05-16T01:25:44;11.63;;;5.95;;
71395;SDS011;59888;55.814;37.132;2023-05-16T01:30:21;11.23;;;5.38;;
71395;SDS011;59888;55.814;37.132;2023-05-16T01:32:46;13.93;;;4.82;;
71395;SDS011;59888;55.814;37.132;2023-05-16T01:35:13;11.05;;;5.43;;
71395;SDS011;59888;55.814;37.132;2023-05-16T01:37:46;14.25;;;5.65;;
71395;SDS011;59888;55.814;37.132;2023-05-16T01:43:20;11.68;;;5.18;;
71395;SDS011;59888;55.814;37.132;2023-05-16T01:46:14;11.25;;;5.07;;
71395;SDS011;59888;55.814;37.132;2023-05-16T01:49:10;13.68;;;5.70;;
71395;SDS011;59888;55.814;37.132;2023-05-16T01:51:53;10.45;;;5.15;;
71395;SDS011;59888;55.814;37.132;2023-05-16T01:54:24;13.30;;;5.60;;
71395;SDS011;59888;55.814;37.132;2023-05-16T01:56:55;11.15;;;5.10;;
71395;SDS011;59888;55.814;37.132;2023-05-16T01:59:23;12.45;;;5.57;;
71395;SDS011;59888;55.814;37.132;2023-05-16T02:01:53;17.48;;;5.50;;
71395;SDS011;59888;55.814;37.132;2023-05-16T02:04:21;12.05;;;5.82;;
71395;SDS011;59888;55.814;37.132;2023-05-16T02:06:49;14.27;;;6.22;;
71395;SDS011;59888;55.814;37.132;2023-05-16T02:09:18;18.30;;;6.70;;
71395;SDS011;59888;55.814;37.132;2023-05-16T02:11:44;24.55;;;7.18;;
71395;SDS011;59888;55.814;37.132;2023-05-16T02:14:11;26.20;;;7.65;;
71395;SDS011;59888;55.814;37.132;2023-05-16T02:16:38;23.52;;;7.03;;
71395;SDS011;59888;55.814;37.132;2023-05-16T02:19:04;23.25;;;7.22;;
71395;SDS011;59888;55.814;37.132;2023-05-16T02:21:51;31.73;;;7.45;;
71395;SDS011;59888;55.814;37.132;2023-05-16T02:24:17;32.25;;;9.38;;
71395;SDS011;59888;55.814;37.132;2023-05-16T02:26:43;30.25;;;7.63;;
71395;SDS011;59888;55.814;37.132;2023-05-16T02:29:09;29.35;;;6.97;;
71395;SDS011;59888;55.814;37.132;2023-05-16T02:31:35;26.50;;;8.05;;
71395;SDS011;59888;55.814;37.132;2023-05-16T02:34:02;18.33;;;7.63;;
71395;SDS011;59888;55.814;37.132;2023-05-16T02:36:28;26.08;;;6.95;;
71395;SDS011;59888;55.814;37.132;2023-05-16T02:38:54;16.67;;;6.20;;
71395;SDS011;59888;55.814;37.132;2023-05-16T02:41:22;19.40;;;6.55;;
71395;SDS011;59888;55.814;37.132;2023-05-16T02:43:49;14.55;;;5.55;;
71395;SDS011;59888;55.814;37.132;2023-05-16T02:48:50;14.80;;;5.70;;
71395;SDS011;59888;55.814;37.132;2023-05-16T02:51:17;13.30;;;5.97;;
71395;SDS011;59888;55.814;37.132;2023-05-16T02:53:45;17.05;;;5.85;;
71395;SDS011;59888;55.814;37.132;2023-05-16T02:56:10;11.85;;;5.78;;
71395;SDS011;59888;55.814;37.132;2023-05-16T02:58:39;13.13;;;5.65;;
71395;SDS011;59888;55.814;37.132;2023-05-16T03:01:06;11.85;;;6.03;;
71395;SDS011;59888;55.814;37.132;2023-05-16T03:03:32;15.05;;;5.88;;
71395;SDS011;59888;55.814;37.132;2023-05-16T03:06:01;11.88;;;5.95;;
71395;SDS011;59888;55.814;37.132;2023-05-16T03:08:27;12.90;;;5.75;;
71395;SDS011;59888;55.814;37.132;2023-05-16T03:10:55;18.25;;;6.45;;
71395;SDS011;59888;55.814;37.132;2023-05-16T03:13:21;14.77;;;6.53;;
71395;SDS011;59888;55.814;37.132;2023-05-16T03:15:48;21.38;;;6.35;;
71395;SDS011;59888;55.814;37.132;2023-05-16T03:18:14;19.92;;;6.45;;
71395;SDS011;59888;55.814;37.132;2023-05-16T03:20:42;10.98;;;6.13;;
71395;SDS011;59888;55.814;37.132;2023-05-16T03:23:08;12.45;;;6.22;;
71395;SDS011;59888;55.814;37.132;2023-05-16T03:25:35;11.98;;;5.90;;
71395;SDS011;59888;55.814;37.132;2023-05-16T03:28:03;13.60;;;6.32;;
71395;SDS011;59888;55.814;37.132;2023-05-16T03:30:31;13.38;;;6.10;;
71395;SDS011;59888;55.814;37.132;2023-05-16T03:32:57;14.18;;;6.72;;
71395;SDS011;59888;55.814;37.132;2023-05-16T03:35:23;18.08;;;6.32;;
71395;SDS011;59888;55.814;37.132;2023-05-16T03:37:58;15.32;;;6.53;;
71395;SDS011;59888;55.814;37.132;2023-05-16T03:40:24;15.80;;;6.10;;
71395;SDS011;59888;55.814;37.132;2023-05-16T03:42:50;12.60;;;6.22;;
71395;SDS011;59888;55.814;37.132;2023-05-16T03:45:17;14.18;;;6.18;;
71395;SDS011;59888;55.814;37.132;2023-05-16T03:47:43;14.05;;;6.65;;
71395;SDS011;59888;55.814;37.132;2023-05-16T03:50:09;11.68;;;6.25;;
71395;SDS011;59888;55.814;37.132;2023-05-16T03:52:35;13.00;;;6.80;;
71395;SDS011;59888;55.814;37.132;2023-05-16T03:55:01;12.25;;;5.90;;
71395;SDS011;59888;55.814;37.132;2023-05-16T03:57:32;11.85;;;6.20;;
71395;SDS011;59888;55.814;37.132;2023-05-16T03:59:59;12.40;;;5.97;;
71395;SDS011;59888;55.814;37.132;2023-05-16T04:02:25;15.93;;;6.15;;
71395;SDS011;59888;55.814;37.132;2023-05-16T04:04:51;15.57;;;5.97;;
71395;SDS011;59888;55.814;37.132;2023-05-16T04:07:17;18.95;;;6.40;;
71395;SDS011;59888;55.814;37.132;2023-05-16T04:09:43;19.00;;;6.53;;
71395;SDS011;59888;55.814;37.132;2023-05-16T04:12:09;15.13;;;5.97;;
71395;SDS011;59888;55.814;37.132;2023-05-16T04:14:35;15.98;;;6.25;;
71395;SDS011;59888;55.814;37.132;2023-05-16T04:17:01;14.23;;;6.38;;
71395;SDS011;59888;55.814;37.132;2023-05-16T04:19:27;14.95;;;5.82;;
71395;SDS011;59888;55.814;37.132;2023-05-16T04:21:53;17.17;;;6.80;;
71395;SDS011;59888;55.814;37.132;2023-05-16T04:24:18;18.55;;;6.35;;
71395;SDS011;59888;55.814;37.132;2023-05-16T04:26:44;15.63;;;6.22;;
71395;SDS011;59888;55.814;37.132;2023-05-16T04:29:10;15.65;;;6.32;;
71395;SDS011;59888;55.814;37.132;2023-05-16T04:31:38;20.65;;;6.43;;
71395;SDS011;59888;55.814;37.132;2023-05-16T04:34:04;16.30;;;6.28;;
71395;SDS011;59888;55.814;37.132;2023-05-16T04:36:30;13.60;;;5.82;;
71395;SDS011;59888;55.814;37.132;2023-05-16T04:38:57;14.93;;;6.07;;
71395;SDS011;59888;55.814;37.132;2023-05-16T04:41:23;14.13;;;6.50;;
71395;SDS011;59888;55.814;37.132;2023-05-16T04:43:49;16.35;;;6.20;;
71395;SDS011;59888;55.814;37.132;2023-05-16T04:46:16;18.00;;;6.13;;
71395;SDS011;59888;55.814;37.132;2023-05-16T04:48:42;18.65;;;5.68;;
71395;SDS011;59888;55.814;37.132;2023-05-16T04:51:08;18.33;;;6.00;;
71395;SDS011;59888;55.814;37.132;2023-05-16T04:53:34;14.45;;;5.88;;
71395;SDS011;59888;55.814;37.132;2023-05-16T04:55:59;13.40;;;4.70;;
71395;SDS011;59888;55.814;37.132;2023-05-16T04:58:25;11.00;;;4.95;;
71395;SDS011;59888;55.814;37.132;2023-05-16T05:00:51;10.70;;;4.93;;
71395;SDS011;59888;55.814;37.132;2023-05-16T05:03:18;11.73;;;4.78;;
71395;SDS011;59888;55.814;37.132;2023-05-16T05:05:44;14.75;;;5.00;;
71395;SDS011;59888;55.814;37.132;2023-05-16T05:08:10;12.70;;;3.80;;
71395;SDS011;59888;55.814;37.132;2023-05-16T05:10:36;9.50;;;4.28;;
71395;SDS011;59888;55.814;37.132;2023-05-16T05:13:02;10.05;;;3.97;;
71395;SDS011;59888;55.814;37.132;2023-05-16T05:15:29;13.40;;;3.88;;
71395;SDS011;59888;55.814;37.132;2023-05-16T05:17:55;6.85;;;3.80;;
71395;SDS011;59888;55.814;37.132;2023-05-16T05:20:21;9.95;;;4.10;;
71395;SDS011;59888;55.814;37.132;2023-05-16T05:22:48;8.50;;;3.45;;
71395;SDS011;59888;55.814;37.132;2023-05-16T05:25:14;6.72;;;3.10;;
71395;SDS011;59888;55.814;37.132;2023-05-16T05:27:40;9.80;;;3.25;;
71395;SDS011;59888;55.814;37.132;2023-05-16T05:30:06;6.95;;;3.08;;
71395;SDS011;59888;55.814;37.132;2023-05-16T05:32:32;10.27;;;3.30;;
71395;SDS011;59888;55.814;37.132;2023-05-16T05:34:58;8.38;;;3.72;;
71395;SDS011;59888;55.814;37.132;2023-05-16T05:37:25;7.07;;;2.90;;
71395;SDS011;59888;55.814;37.132;2023-05-16T05:39:51;6.15;;;2.67;;
71395;SDS011;59888;55.814;37.132;2023-05-16T05:42:17;7.10;;;2.75;;
71395;SDS011;59888;55.814;37.132;2023-05-16T05:44:43;6.05;;;2.60;;
71395;SDS011;59888;55.814;37.132;2023-05-16T05:47:09;5.80;;;2.42;;
71395;SDS011;59888;55.814;37.132;2023-05-16T05:49:35;5.78;;;2.58;;
71395;SDS011;59888;55.814;37.132;2023-05-16T05:52:01;8.60;;;2.50;;
71395;SDS011;59888;55.814;37.132;2023-05-16T05:54:28;9.60;;;2.90;;
71395;SDS011;59888;55.814;37.132;2023-05-16T05:56:57;5.55;;;2.53;;
71395;SDS011;59888;55.814;37.132;2023-05-16T05:59:23;3.88;;;2.42;;
71395;SDS011;59888;55.814;37.132;2023-05-16T06:01:49;6.10;;;2.53;;
71395;SDS011;59888;55.814;37.132;2023-05-16T06:04:17;6.10;;;1.75;;
71395;SDS011;59888;55.814;37.132;2023-05-16T06:06:46;7.18;;;1.70;;
71395;SDS011;59888;55.814;37.132;2023-05-16T06:09:12;4.53;;;1.55;;
71395;SDS011;59888;55.814;37.132;2023-05-16T06:11:39;3.67;;;1.38;;
71395;SDS011;59888;55.814;37.132;2023-05-16T06:14:06;2.67;;;1.20;;
71395;SDS011;59888;55.814;37.132;2023-05-16T06:16:32;3.90;;;1.50;;
71395;SDS011;59888;55.814;37.132;2023-05-16T06:18:58;8.35;;;1.48;;
71395;SDS011;59888;55.814;37.132;2023-05-16T06:21:27;3.53;;;1.20;;
71395;SDS011;59888;55.814;37.132;2023-05-16T06:23:53;3.88;;;1.40;;
71395;SDS011;59888;55.814;37.132;2023-05-16T06:26:19;4.28;;;1.10;;
71395;SDS011;59888;55.814;37.132;2023-05-16T06:28:46;1.85;;;1.00;;
71395;SDS011;59888;55.814;37.132;2023-05-16T06:31:12;4.15;;;1.17;;
71395;SDS011;59888;55.814;37.132;2023-05-16T06:33:38;4.00;;;1.00;;
71395;SDS011;59888;55.814;37.132;2023-05-16T06:36:04;3.25;;;1.20;;
71395;SDS011;59888;55.814;37.132;2023-05-16T06:38:30;3.15;;;1.20;;
71395;SDS011;59888;55.814;37.132;2023-05-16T06:40:56;3.47;;;1.23;;
71395;SDS011;59888;55.814;37.132;2023-05-16T06:43:22;6.90;;;2.10;;
71395;SDS011;59888;55.814;37.132;2023-05-16T06:45:48;4.13;;;1.20;;
71395;SDS011;59888;55.814;37.132;2023-05-16T06:48:14;7.90;;;1.42;;
71395;SDS011;59888;55.814;37.132;2023-05-16T06:50:40;6.25;;;1.35;;
71395;SDS011;59888;55.814;37.132;2023-05-16T06:53:06;3.67;;;1.20;;
71395;SDS011;59888;55.814;37.132;2023-05-16T06:55:32;2.28;;;1.23;;
71395;SDS011;59888;55.814;37.132;2023-05-16T06:57:59;3.30;;;1.10;;
71395;SDS011;59888;55.814;37.132;2023-05-16T07:00:25;3.10;;;1.05;;
71395;SDS011;59888;55.814;37.132;2023-05-16T07:02:51;5.35;;;1.25;;
71395;SDS011;59888;55.814;37.132;2023-05-16T07:05:17;4.47;;;1.58;;
71395;SDS011;59888;55.814;37.132;2023-05-16T07:07:43;4.07;;;1.15;;
71395;SDS011;59888;55.814;37.132;2023-05-16T07:10:10;11.38;;;1.60;;
71395;SDS011;59888;55.814;37.132;2023-05-16T07:12:39;5.15;;;1.80;;
71395;SDS011;59888;55.814;37.132;2023-05-16T07:15:06;3.55;;;1.23;;
71395;SDS011;59888;55.814;37.132;2023-05-16T07:17:33;4.75;;;1.23;;
71395;SDS011;59888;55.814;37.132;2023-05-16T07:20:00;3.75;;;1.20;;
71395;SDS011;59888;55.814;37.132;2023-05-16T07:22:25;4.57;;;1.77;;
71395;SDS011;59888;55.814;37.132;2023-05-16T07:24:51;5.10;;;1.60;;
71395;SDS011;59888;55.814;37.132;2023-05-16T07:27:21;4.18;;;1.20;;
71395;SDS011;59888;55.814;37.132;2023-05-16T07:29:47;8.93;;;1.23;;
71395;SDS011;59888;55.814;37.132;2023-05-16T07:32:13;9.55;;;1.83;;
71395;SDS011;59888;55.814;37.132;2023-05-16T07:34:40;4.20;;;1.30;;
71395;SDS011;59888;55.814;37.132;2023-05-16T07:37:06;2.45;;;1.30;;
71395;SDS011;59888;55.814;37.132;2023-05-16T07:39:41;5.32;;;1.27;;
71395;SDS011;59888;55.814;37.132;2023-05-16T07:42:07;3.67;;;1.20;;
71395;SDS011;59888;55.814;37.132;2023-05-16T07:44:34;7.82;;;1.27;;
71395;SDS011;59888;55.814;37.132;2023-05-16T07:47:01;8.27;;;1.25;;
71395;SDS011;59888;55.814;37.132;2023-05-16T07:49:27;5.75;;;1.45;;
71395;SDS011;59888;55.814;37.132;2023-05-16T07:51:53;5.25;;;1.20;;
71395;SDS011;59888;55.814;37.132;2023-05-16T07:54:20;9.55;;;1.45;;
71395;SDS011;59888;55.814;37.132;2023-05-16T07:56:46;2.80;;;1.20;;
71395;SDS011;59888;55.814;37.132;2023-05-16T07:59:12;2.85;;;1.10;;
71395;SDS011;59888;55.814;37.132;2023-05-16T08:01:38;2.50;;;1.08;;
71395;SDS011;59888;55.814;37.132;2023-05-16T08:04:05;3.63;;;0.90;;
71395;SDS011;59888;55.814;37.132;2023-05-16T08:06:31;6.40;;;1.55;;
71395;SDS011;59888;55.814;37.132;2023-05-16T08:08:59;3.50;;;1.10;;
71395;SDS011;59888;55.814;37.132;2023-05-16T08:11:25;4.82;;;1.02;;
71395;SDS011;59888;55.814;37.132;2023-05-16T08:13:51;7.13;;;1.20;;
71395;SDS011;59888;55.814;37.132;2023-05-16T08:16:17;4.32;;;1.10;;
71395;SDS011;59888;55.814;37.132;2023-05-16T08:18:43;5.45;;;1.05;;
71395;SDS011;59888;55.814;37.132;2023-05-16T08:21:09;3.53;;;0.80;;
71395;SDS011;59888;55.814;37.132;2023-05-16T08:23:35;3.72;;;1.00;;
71395;SDS011;59888;55.814;37.132;2023-05-16T08:26:01;6.07;;;0.93;;
71395;SDS011;59888;55.814;37.132;2023-05-16T08:28:28;2.08;;;0.88;;
71395;SDS011;59888;55.814;37.132;2023-05-16T08:30:54;2.13;;;0.90;;
71395;SDS011;59888;55.814;37.132;2023-05-16T08:33:21;7.25;;;1.45;;
71395;SDS011;59888;55.814;37.132;2023-05-16T08:35:49;5.47;;;0.95;;
71395;SDS011;59888;55.814;37.132;2023-05-16T08:38:17;4.30;;;1.08;;
71395;SDS011;59888;55.814;37.132;2023-05-16T08:40:44;5.05;;;1.00;;
71395;SDS011;59888;55.814;37.132;2023-05-16T08:43:11;3.38;;;1.00;;
71395;SDS011;59888;55.814;37.132;2023-05-16T08:45:38;7.07;;;1.00;;
71395;SDS011;59888;55.814;37.132;2023-05-16T08:48:05;3.05;;;0.98;;
71395;SDS011;59888;55.814;37.132;2023-05-16T08:50:32;6.25;;;1.35;;
71395;SDS011;59888;55.814;37.132;2023-05-16T08:53:02;8.68;;;1.52;;
71395;SDS011;59888;55.814;37.132;2023-05-16T08:55:32;9.60;;;1.60;;
71395;SDS011;59888;55.814;37.132;2023-05-16T08:57:59;4.13;;;1.13;;
71395;SDS011;59888;55.814;37.132;2023-05-16T09:00:25;2.75;;;0.90;;
71395;SDS011;59888;55.814;37.132;2023-05-16T09:02:51;2.22;;;1.05;;
71395;SDS011;59888;55.814;37.132;2023-05-16T09:05:18;4.57;;;1.00;;
71395;SDS011;59888;55.814;37.132;2023-05-16T09:07:44;8.40;;;1.90;;
71395;SDS011;59888;55.814;37.132;2023-05-16T09:10:11;11.38;;;1.70;;
71395;SDS011;59888;55.814;37.132;2023-05-16T09:12:38;7.00;;;1.30;;
71395;SDS011;59888;55.814;37.132;2023-05-16T09:15:05;3.67;;;0.90;;
71395;SDS011;59888;55.814;37.132;2023-05-16T09:17:37;5.20;;;1.00;;
71395;SDS011;59888;55.814;37.132;2023-05-16T09:20:12;6.35;;;0.90;;
71395;SDS011;59888;55.814;37.132;2023-05-16T09:25:17;3.63;;;0.90;;
71395;SDS011;59888;55.814;37.132;2023-05-16T09:27:44;5.30;;;1.00;;
71395;SDS011;59888;55.814;37.132;2023-05-16T09:30:13;3.55;;;0.80;;
71395;SDS011;59888;55.814;37.132;2023-05-16T09:32:44;6.47;;;1.20;;
71395;SDS011;59888;55.814;37.132;2023-05-16T09:35:13;1.83;;;0.90;;
71395;SDS011;59888;55.814;37.132;2023-05-16T09:37:47;8.70;;;1.05;;
71395;SDS011;59888;55.814;37.132;2023-05-16T09:40:14;3.33;;;1.20;;
71395;SDS011;59888;55.814;37.132;2023-05-16T09:42:42;8.82;;;1.00;;
71395;SDS011;59888;55.814;37.132;2023-05-16T09:45:12;5.22;;;1.00;;
71395;SDS011;59888;55.814;37.132;2023-05-16T09:47:40;3.60;;;1.42;;
71395;SDS011;59888;55.814;37.132;2023-05-16T09:50:14;7.55;;;1.17;;
71395;SDS011;59888;55.814;37.132;2023-05-16T09:52:42;3.97;;;1.00;;
71395;SDS011;59888;55.814;37.132;2023-05-16T09:55:09;3.22;;;0.90;;
71395;SDS011;59888;55.814;37.132;2023-05-16T09:57:36;1.70;;;0.82;;
71395;SDS011;59888;55.814;37.132;2023-05-16T10:00:05;18.85;;;2.17;;
71395;SDS011;59888;55.814;37.132;2023-05-16T10:02:35;4.28;;;1.40;;
71395;SDS011;59888;55.814;37.132;2023-05-16T10:05:02;7.25;;;1.00;;
71395;SDS011;59888;55.814;37.132;2023-05-16T10:07:32;7.15;;;1.92;;
71395;SDS011;59888;55.814;37.132;2023-05-16T10:10:00;3.90;;;1.38;;
71395;SDS011;59888;55.814;37.132;2023-05-16T10:12:31;2.33;;;0.90;;
71395;SDS011;59888;55.814;37.132;2023-05-16T10:14:59;2.25;;;0.95;;
71395;SDS011;59888;55.814;37.132;2023-05-16T10:17:33;2.45;;;0.98;;
71395;SDS011;59888;55.814;37.132;2023-05-16T10:20:01;9.95;;;1.10;;
71395;SDS011;59888;55.814;37.132;2023-05-16T10:22:35;7.55;;;1.17;;
71395;SDS011;59888;55.814;37.132;2023-05-16T10:25:07;3.28;;;0.90;;
71395;SDS011;59888;55.814;37.132;2023-05-16T10:27:37;4.95;;;0.93;;
71395;SDS011;59888;55.814;37.132;2023-05-16T10:30:05;3.85;;;0.95;;
71395;SDS011;59888;55.814;37.132;2023-05-16T10:32:32;2.45;;;1.10;;
71395;SDS011;59888;55.814;37.132;2023-05-16T10:34:58;7.30;;;1.30;;
71395;SDS011;59888;55.814;37.132;2023-05-16T10:37:30;2.70;;;1.25;;
71395;SDS011;59888;55.814;37.132;2023-05-16T10:39:58;5.47;;;1.30;;
71395;SDS011;59888;55.814;37.132;2023-05-16T10:42:25;3.53;;;0.95;;
71395;SDS011;59888;55.814;37.132;2023-05-16T10:44:54;2.47;;;1.02;;
71395;SDS011;59888;55.814;37.132;2023-05-16T10:47:22;3.88;;;0.85;;
71395;SDS011;59888;55.814;37.132;2023-05-16T10:49:48;2.08;;;1.00;;
71395;SDS011;59888;55.814;37.132;2023-05-16T10:52:14;3.95;;;1.05;;
71395;SDS011;59888;55.814;37.132;2023-05-16T10:54:43;7.30;;;1.23;;
71395;SDS011;59888;55.814;37.132;2023-05-16T10:57:16;4.20;;;0.90;;
71395;SDS011;59888;55.814;37.132;2023-05-16T10:59:47;2.47;;;1.10;;
71395;SDS011;59888;55.814;37.132;2023-05-16T11:02:20;3.47;;;1.00;;
71395;SDS011;59888;55.814;37.132;2023-05-16T11:04:49;4.22;;;0.82;;
71395;SDS011;59888;55.814;37.132;2023-05-16T11:07:24;2.58;;;0.93;;
71395;SDS011;59888;55.814;37.132;2023-05-16T11:10:02;6.00;;;1.10;;
71395;SDS011;59888;55.814;37.132;2023-05-16T11:12:49;4.45;;;0.85;;
71395;SDS011;59888;55.814;37.132;2023-05-16T11:15:26;3.22;;;1.02;;
71395;SDS011;59888;55.814;37.132;2023-05-16T11:18:06;7.20;;;0.73;;
71395;SDS011;59888;55.814;37.132;2023-05-16T11:20:33;4.53;;;0.95;;
71395;SDS011;59888;55.814;37.132;2023-05-16T11:25:42;4.43;;;0.93;;
71395;SDS011;59888;55.814;37.132;2023-05-16T11:28:13;2.80;;;0.90;;
71395;SDS011;59888;55.814;37.132;2023-05-16T11:30:43;8.40;;;1.00;;
71395;SDS011;59888;55.814;37.132;2023-05-16T11:33:10;3.47;;;0.90;;
71395;SDS011;59888;55.814;37.132;2023-05-16T11:35:40;2.45;;;1.20;;
71395;SDS011;59888;55.814;37.132;2023-05-16T11:38:12;4.20;;;0.90;;
71395;SDS011;59888;55.814;37.132;2023-05-16T11:40:42;3.45;;;1.10;;
71395;SDS011;59888;55.814;37.132;2023-05-16T11:43:09;3.42;;;0.80;;
71395;SDS011;59888;55.814;37.132;2023-05-16T11:45:36;2.80;;;0.98;;
71395;SDS011;59888;55.814;37.132;2023-05-16T11:48:02;7.30;;;1.23;;
71395;SDS011;59888;55.814;37.132;2023-05-16T11:50:29;5.00;;;1.08;;
71395;SDS011;59888;55.814;37.132;2023-05-16T11:52:55;3.28;;;0.65;;
71395;SDS011;59888;55.814;37.132;2023-05-16T11:55:24;6.30;;;1.08;;
71395;SDS011;59888;55.814;37.132;2023-05-16T11:57:55;2.72;;;0.73;;
71395;SDS011;59888;55.814;37.132;2023-05-16T12:00:23;4.03;;;0.90;;
71395;SDS011;59888;55.814;37.132;2023-05-16T12:02:52;5.35;;;0.90;;
71395;SDS011;59888;55.814;37.132;2023-05-16T12:05:20;3.17;;;0.73;;
71395;SDS011;59888;55.814;37.132;2023-05-16T12:07:51;3.25;;;0.73;;
71395;SDS011;59888;55.814;37.132;2023-05-16T12:10:21;3.60;;;0.70;;
71395;SDS011;59888;55.814;37.132;2023-05-16T12:12:47;3.33;;;0.80;;
71395;SDS011;59888;55.814;37.132;2023-05-16T12:15:19;2.10;;;0.80;;
71395;SDS011;59888;55.814;37.132;2023-05-16T12:17:46;3.28;;;0.80;;
71395;SDS011;59888;55.814;37.132;2023-05-16T12:20:12;2.72;;;0.88;;
71395;SDS011;59888;55.814;37.132;2023-05-16T12:22:41;3.97;;;0.80;;
71395;SDS011;59888;55.814;37.132;2023-05-16T12:25:19;3.63;;;0.90;;
71395;SDS011;59888;55.814;37.132;2023-05-16T12:27:48;7.70;;;1.27;;
71395;SDS011;59888;55.814;37.132;2023-05-16T12:30:16;5.88;;;0.88;;
71395;SDS011;59888;55.814;37.132;2023-05-16T12:32:43;2.38;;;0.80;;
71395;SDS011;59888;55.814;37.132;2023-05-16T12:35:09;5.43;;;1.25;;
71395;SDS011;59888;55.814;37.132;2023-05-16T12:37:37;3.28;;;0.85;;
71395;SDS011;59888;55.814;37.132;2023-05-16T12:40:03;4.25;;;0.90;;
71395;SDS011;59888;55.814;37.132;2023-05-16T12:42:31;6.18;;;1.10;;
71395;SDS011;59888;55.814;37.132;2023-05-16T12:44:57;5.43;;;0.95;;
71395;SDS011;59888;55.814;37.132;2023-05-16T12:47:23;2.72;;;0.90;;
71395;SDS011;59888;55.814;37.132;2023-05-16T12:50:01;3.33;;;0.98;;
71395;SDS011;59888;55.814;37.132;2023-05-16T12:52:29;2.75;;;1.10;;
71395;SDS011;59888;55.814;37.132;2023-05-16T12:54:55;4.30;;;1.00;;
71395;SDS011;59888;55.814;37.132;2023-05-16T12:57:20;7.43;;;0.95;;
71395;SDS011;59888;55.814;37.132;2023-05-16T12:59:46;2.95;;;0.90;;
71395;SDS011;59888;55.814;37.132;2023-05-16T13:02:12;4.53;;;0.90;;
71395;SDS011;59888;55.814;37.132;2023-05-16T13:04:43;1.60;;;0.80;;
71395;SDS011;59888;55.814;37.132;2023-05-16T13:07:12;3.90;;;1.10;;
71395;SDS011;59888;55.814;37.132;2023-05-16T13:09:38;2.13;;;0.90;;
71395;SDS011;59888;55.814;37.132;2023-05-16T13:12:06;4.93;;;1.10;;
71395;SDS011;59888;55.814;37.132;2023-05-16T13:14:32;2.10;;;0.90;;
71395;SDS011;59888;55.814;37.132;2023-05-16T13:16:58;3.50;;;1.40;;
71395;SDS011;59888;55.814;37.132;2023-05-16T13:19:24;4.43;;;1.00;;
71395;SDS011;59888;55.814;37.132;2023-05-16T13:21:50;2.50;;;1.00;;
71395;SDS011;59888;55.814;37.132;2023-05-16T13:24:16;3.83;;;0.82;;
71395;SDS011;59888;55.814;37.132;2023-05-16T13:26:42;3.75;;;0.90;;
71395;SDS011;59888;55.814;37.132;2023-05-16T13:29:07;11.02;;;1.27;;
71395;SDS011;59888;55.814;37.132;2023-05-16T13:31:35;2.15;;;0.90;;
71395;SDS011;59888;55.814;37.132;2023-05-16T13:34:01;3.75;;;1.08;;
71395;SDS011;59888;55.814;37.132;2023-05-16T13:36:27;3.63;;;1.00;;
71395;SDS011;59888;55.814;37.132;2023-05-16T13:38:53;4.78;;;0.98;;
71395;SDS011;59888;55.814;37.132;2023-05-16T13:41:18;5.43;;;1.10;;
71395;SDS011;59888;55.814;37.132;2023-05-16T13:43:45;6.07;;;1.00;;
71395;SDS011;59888;55.814;37.132;2023-05-16T13:46:10;2.15;;;0.82;;
71395;SDS011;59888;55.814;37.132;2023-05-16T13:48:36;7.93;;;0.90;;
71395;SDS011;59888;55.814;37.132;2023-05-16T13:51:02;6.85;;;1.02;;
71395;SDS011;59888;55.814;37.132;2023-05-16T13:53:28;5.05;;;1.00;;
71395;SDS011;59888;55.814;37.132;2023-05-16T13:55:54;4.35;;;1.02;;
71395;SDS011;59888;55.814;37.132;2023-05-16T13:58:20;1.52;;;0.90;;
71395;SDS011;59888;55.814;37.132;2023-05-16T14:00:46;3.58;;;1.00;;
71395;SDS011;59888;55.814;37.132;2023-05-16T14:03:12;4.30;;;0.90;;
71395;SDS011;59888;55.814;37.132;2023-05-16T14:05:38;2.45;;;1.27;;
71395;SDS011;59888;55.814;37.132;2023-05-16T14:08:04;6.45;;;0.70;;
71395;SDS011;59888;55.814;37.132;2023-05-16T14:10:31;4.07;;;0.70;;
71395;SDS011;59888;55.814;37.132;2023-05-16T14:12:57;4.45;;;0.90;;
71395;SDS011;59888;55.814;37.132;2023-05-16T14:15:23;3.28;;;1.13;;
71395;SDS011;59888;55.814;37.132;2023-05-16T14:17:48;3.55;;;1.15;;
71395;SDS011;59888;55.814;37.132;2023-05-16T14:20:14;2.95;;;0.82;;
71395;SDS011;59888;55.814;37.132;2023-05-16T14:22:40;2.97;;;0.73;;
71395;SDS011;59888;55.814;37.132;2023-05-16T14:25:07;5.82;;;1.35;;
71395;SDS011;59888;55.814;37.132;2023-05-16T14:27:33;5.10;;;0.90;;
71395;SDS011;59888;55.814;37.132;2023-05-16T14:29:59;2.47;;;0.80;;
71395;SDS011;59888;55.814;37.132;2023-05-16T14:32:25;9.93;;;1.15;;
71395;SDS011;59888;55.814;37.132;2023-05-16T14:34:51;7.72;;;0.90;;
71395;SDS011;59888;55.814;37.132;2023-05-16T14:37:17;3.42;;;0.80;;
71395;SDS011;59888;55.814;37.132;2023-05-16T14:39:45;1.23;;;0.70;;
71395;SDS011;59888;55.814;37.132;2023-05-16T14:42:14;4.05;;;0.98;;
71395;SDS011;59888;55.814;37.132;2023-05-16T14:44:39;2.13;;;0.90;;
71395;SDS011;59888;55.814;37.132;2023-05-16T14:47:05;4.60;;;1.00;;
71395;SDS011;59888;55.814;37.132;2023-05-16T14:49:31;5.05;;;1.00;;
71395;SDS011;59888;55.814;37.132;2023-05-16T14:51:57;4.32;;;0.98;;
71395;SDS011;59888;55.814;37.132;2023-05-16T14:54:23;3.58;;;0.90;;